Time;durP1;ratioP1;P1;durP2;ratioP2;P2;SDS_P1;SDS_P2;PMS_P1;PMS_P2;Temp;Humidity;BMP_temperature;BMP_pressure;BME280_temperature;BME280_humidity;BME280_pressure;Samples;Min_cycle;Max_cycle;Signal;HPM_P1;HPM_P2
2023/06/01 00:00:56;;;;;;;9.95;5.60;;;;;;;16.32;48.53;100546.03;5030245;28;20053;-77
2023/06/01 00:03:23;;;;;;;8.10;5.43;;;;;;;16.33;48.58;100538.94;5030911;28;20045;-76
2023/06/01 00:05:50;;;;;;;7.93;4.82;;;;;;;16.31;48.57;100541.69;5031301;28;20053;-76
2023/06/01 00:08:17;;;;;;;6.28;4.43;;;;;;;16.28;48.51;100537.44;5031178;28;20046;-77
2023/06/01 00:10:44;;;;;;;12.02;4.93;;;;;;;16.28;48.50;100533.94;5030860;28;20049;-77
2023/06/01 00:13:11;;;;;;;10.27;4.80;;;;;;;16.26;48.58;100542.00;5030930;28;20049;-76
2023/06/01 00:15:37;;;;;;;11.43;5.00;;;;;;;16.24;48.52;100549.25;5029443;28;20095;-76
2023/06/01 00:18:05;;;;;;;10.25;4.88;;;;;;;16.22;48.53;100532.53;5030971;28;20478;-78
2023/06/01 00:20:32;;;;;;;7.15;4.90;;;;;;;16.20;48.40;100538.91;5029700;28;20144;-77
2023/06/01 00:22:59;;;;;;;8.95;4.68;;;;;;;16.15;48.65;100534.75;5030642;28;20053;-76
2023/06/01 00:25:26;;;;;;;9.85;4.75;;;;;;;16.12;49.01;100534.13;5030710;28;20049;-76
2023/06/01 00:27:53;;;;;;;8.20;4.80;;;;;;;16.08;48.89;100530.84;5030808;28;20049;-77
2023/06/01 00:30:20;;;;;;;10.85;4.85;;;;;;;16.06;49.04;100529.22;5030814;28;20135;-76
2023/06/01 00:32:46;;;;;;;10.70;4.95;;;;;;;16.04;49.09;100529.34;5029307;28;20041;-76
2023/06/01 00:35:13;;;;;;;7.10;4.38;;;;;;;16.02;49.07;100529.44;5030648;28;20049;-77
2023/06/01 00:37:39;;;;;;;10.40;5.00;;;;;;;16.01;49.04;100526.91;5030390;28;20498;-76
2023/06/01 00:40:07;;;;;;;10.15;5.03;;;;;;;15.98;49.22;100527.09;5030607;28;20060;-76
2023/06/01 00:42:34;;;;;;;8.13;3.90;;;;;;;15.96;49.18;100532.50;5030590;28;20144;-76
2023/06/01 00:45:01;;;;;;;10.23;4.70;;;;;;;15.94;49.17;100531.78;5030238;28;20119;-77
2023/06/01 00:47:27;;;;;;;7.15;4.38;;;;;;;15.94;49.20;100528.22;5029131;28;20106;-78
2023/06/01 00:49:54;;;;;;;10.65;4.53;;;;;;;15.93;49.17;100532.69;5030609;28;20050;-77
2023/06/01 00:52:23;;;;;;;9.20;4.85;;;;;;;15.90;49.46;100533.72;5030389;28;20060;-77
2023/06/01 00:54:50;;;;;;;9.23;4.22;;;;;;;15.89;49.35;100526.72;5030430;28;20120;-77
2023/06/01 00:57:16;;;;;;;7.18;4.28;;;;;;;15.88;49.45;100533.00;5031997;28;20061;-77
2023/06/01 00:59:43;;;;;;;8.40;4.68;;;;;;;15.88;49.59;100527.69;5037156;28;20664;-77
2023/06/01 01:02:15;;;;;;;8.57;4.43;;;;;;;15.88;49.46;100529.47;5037373;28;20176;-76
2023/06/01 01:04:42;;;;;;;10.20;4.55;;;;;;;15.88;49.73;100518.84;5036808;28;20068;-77
2023/06/01 01:07:35;;;;;;;9.27;4.90;;;;;;;15.83;50.00;100528.94;5036209;28;20057;-77
2023/06/01 01:10:14;;;;;;;7.13;4.25;;;;;;;15.86;50.43;100529.56;5035372;28;20053;-77
2023/06/01 01:12:58;;;;;;;14.77;4.78;;;;;;;15.85;50.04;100533.19;5035831;28;20065;-78
2023/06/01 01:16:03;;;;;;;11.55;4.72;;;;;;;15.83;49.99;100527.16;5036277;28;20524;-76
2023/06/01 01:18:42;;;;;;;12.48;4.95;;;;;;;15.83;50.27;100521.84;5028306;28;20107;-77
2023/06/01 01:21:28;;;;;;;9.98;4.60;;;;;;;15.85;49.79;100524.41;5037009;28;20060;-76
2023/06/01 01:24:17;;;;;;;6.28;4.30;;;;;;;15.82;50.42;100516.63;5036852;28;20053;-76
2023/06/01 01:27:24;;;;;;;10.45;5.10;;;;;;;15.79;50.37;100515.03;5016862;28;20520;-77
2023/06/01 01:29:54;;;;;;;10.27;4.88;;;;;;;15.83;50.08;100521.84;5008860;28;20054;-77
2023/06/01 01:32:23;;;;;;;8.73;4.85;;;;;;;15.85;50.52;100519.91;5016819;28;20495;-76
2023/06/01 01:34:51;;;;;;;13.88;5.25;;;;;;;15.86;49.96;100505.69;5019157;28;20045;-76
2023/06/01 01:37:17;;;;;;;9.52;5.40;;;;;;;15.87;49.94;100510.06;5036026;28;20426;-76
2023/06/01 01:39:44;;;;;;;10.55;5.60;;;;;;;15.89;50.11;100521.41;5036341;28;20103;-77
2023/06/01 01:42:11;;;;;;;10.45;5.75;;;;;;;15.91;50.04;100508.03;5036661;28;20057;-77
2023/06/01 01:44:37;;;;;;;13.57;5.47;;;;;;;15.93;50.04;100510.59;5036539;28;20144;-77
2023/06/01 01:47:30;;;;;;;8.43;4.72;;;;;;;15.93;50.53;100510.59;5035053;28;20049;-76
2023/06/01 01:50:03;;;;;;;9.70;5.00;;;;;;;15.94;50.00;100517.59;5036872;28;20049;-78
2023/06/01 01:52:37;;;;;;;9.45;5.07;;;;;;;15.91;50.03;100513.34;5036595;28;20072;-77
2023/06/01 01:55:08;;;;;;;13.35;5.93;;;;;;;15.90;50.06;100509.84;5035043;28;20064;-77
2023/06/01 01:57:35;;;;;;;9.65;5.10;;;;;;;15.90;49.75;100511.66;5017055;28;20455;-77
2023/06/01 02:00:05;;;;;;;9.73;5.40;;;;;;;15.87;49.64;100510.06;5016785;28;20065;-77
2023/06/01 02:02:32;;;;;;;11.68;4.93;;;;;;;15.86;49.60;100512.81;5016825;28;20060;-76
2023/06/01 02:04:59;;;;;;;12.70;5.70;;;;;;;15.84;49.68;100514.72;5016585;28;20134;-76
2023/06/01 02:07:25;;;;;;;9.27;4.95;;;;;;;15.82;49.86;100511.31;5032772;28;20076;-77
2023/06/01 02:09:52;;;;;;;8.80;5.45;;;;;;;15.79;49.82;100509.72;5033487;28;20516;-76
2023/06/01 02:12:18;;;;;;;11.07;5.20;;;;;;;15.79;49.90;100509.72;5033476;28;20053;-78
2023/06/01 02:14:45;;;;;;;8.50;5.13;;;;;;;15.78;50.05;100510.69;5033012;28;20414;-77
2023/06/01 02:17:15;;;;;;;9.55;4.88;;;;;;;15.76;50.15;100507.25;5031588;28;20053;-77
2023/06/01 02:19:43;;;;;;;16.80;5.30;;;;;;;15.75;49.96;100508.22;5033179;28;20091;-77
2023/06/01 02:22:10;;;;;;;9.00;5.00;;;;;;;15.74;49.73;100502.06;5033220;28;20061;-77
2023/06/01 02:24:36;;;;;;;10.27;4.88;;;;;;;15.71;49.72;100499.63;5033006;28;20049;-77
2023/06/01 02:27:03;;;;;;;11.23;5.38;;;;;;;15.68;49.72;100497.16;5031582;28;20132;-76
2023/06/01 02:29:30;;;;;;;9.23;5.03;;;;;;;15.63;49.63;100500.13;5033084;28;20111;-77
2023/06/01 02:31:57;;;;;;;9.57;5.20;;;;;;;15.59;49.65;100505.75;5032683;28;20441;-78
2023/06/01 02:34:23;;;;;;;10.93;5.13;;;;;;;15.54;49.63;100506.03;5031578;28;20083;-76
2023/06/01 02:36:50;;;;;;;14.45;5.25;;;;;;;15.49;49.72;100509.00;5032797;28;20115;-77
2023/06/01 02:39:17;;;;;;;9.23;5.70;;;;;;;15.44;49.91;100504.97;5033000;28;20077;-78
2023/06/01 02:41:44;;;;;;;12.93;5.18;;;;;;;15.39;50.30;100505.25;5032976;28;20111;-76
2023/06/01 02:44:11;;;;;;;10.50;5.63;;;;;;;15.39;50.16;100502.59;5032807;28;20406;-76
2023/06/01 02:46:37;;;;;;;11.30;5.78;;;;;;;15.38;50.32;100503.56;5031192;28;20522;-78
2023/06/01 02:49:04;;;;;;;12.20;5.35;;;;;;;15.39;50.58;100505.25;5031079;28;20049;-76
2023/06/01 02:51:32;;;;;;;12.10;5.82;;;;;;;15.40;50.50;100504.28;5032583;28;20557;-77
2023/06/01 02:53:59;;;;;;;11.32;5.70;;;;;;;15.39;50.33;100507.91;5032484;28;20483;-77
2023/06/01 02:56:26;;;;;;;8.45;5.38;;;;;;;15.37;50.38;100497.38;5032292;28;20049;-78
2023/06/01 02:58:53;;;;;;;10.65;5.22;;;;;;;15.35;50.45;100501.09;5031991;28;20057;-76
2023/06/01 03:01:20;;;;;;;12.10;6.07;;;;;;;15.32;50.43;100496.84;5031700;28;20088;-77
2023/06/01 03:03:48;;;;;;;10.70;5.80;;;;;;;15.31;50.67;100497.78;5032437;28;20092;-76
2023/06/01 03:06:17;;;;;;;13.57;5.75;;;;;;;15.31;50.60;100508.41;5031791;28;20509;-78
2023/06/01 03:08:49;;;;;;;11.45;5.82;;;;;;;15.28;50.83;100498.00;5120386;22;20064;-81
2023/06/01 03:11:16;;;;;;;18.10;5.97;;;;;;;15.28;50.49;100503.28;5030242;28;20108;-81
2023/06/01 03:13:43;;;;;;;12.98;5.63;;;;;;;15.27;50.57;100500.72;5030780;28;20041;-81
2023/06/01 03:16:10;;;;;;;11.75;5.60;;;;;;;15.23;50.59;100494.78;5031042;28;20063;-81
2023/06/01 03:18:36;;;;;;;13.05;5.85;;;;;;;15.22;50.53;100504.53;5030713;28;20542;-81
2023/06/01 03:21:04;;;;;;;11.52;6.05;;;;;;;15.20;50.59;100495.84;5030866;28;20045;-81
2023/06/01 03:23:31;;;;;;;11.07;5.65;;;;;;;15.17;50.70;100504.00;5030725;28;20136;-80
2023/06/01 03:25:58;;;;;;;11.10;6.00;;;;;;;15.17;50.82;100496.03;5031584;28;20050;-80
2023/06/01 03:28:24;;;;;;;10.60;5.20;;;;;;;15.18;50.96;100496.91;5032143;28;20072;-81
2023/06/01 03:30:51;;;;;;;11.15;5.50;;;;;;;15.18;50.95;100497.72;5031883;28;20045;-81
2023/06/01 03:33:18;;;;;;;11.75;5.50;;;;;;;15.19;50.95;100499.44;5031625;28;20115;-81
2023/06/01 03:35:44;;;;;;;13.35;5.63;;;;;;;15.21;51.05;100494.03;5031576;28;20060;-81
2023/06/01 03:38:11;;;;;;;10.73;5.32;;;;;;;15.21;51.17;100489.56;5031579;28;20108;-81
2023/06/01 03:40:37;;;;;;;13.07;6.18;;;;;;;15.24;51.21;100493.84;5031643;28;20597;-81
2023/06/01 03:43:04;;;;;;;15.13;6.13;;;;;;;15.27;51.44;100496.28;5030403;28;20057;-81
2023/06/01 03:45:30;;;;;;;11.93;5.95;;;;;;;15.28;51.22;100490.03;5031687;28;20132;-81
2023/06/01 03:47:57;;;;;;;8.07;5.30;;;;;;;15.31;50.92;100489.84;5030334;28;20050;-80
2023/06/01 03:50:23;;;;;;;9.65;5.47;;;;;;;15.34;51.19;100494.94;5031584;28;20064;-81
2023/06/01 03:52:50;;;;;;;11.40;6.03;;;;;;;15.36;50.96;100494.81;5029906;28;20463;-80
2023/06/01 03:55:16;;;;;;;14.65;6.07;;;;;;;15.36;51.00;100486.88;5031242;28;20054;-81
2023/06/01 03:57:43;;;;;;;11.73;6.07;;;;;;;15.36;50.96;100492.16;5031311;28;20053;-80
2023/06/01 04:00:19;;;;;;;11.75;5.40;;;;;;;15.35;51.06;100488.69;5031508;28;20132;-81
2023/06/01 04:02:55;;;;;;;10.93;5.63;;;;;;;15.34;51.25;100486.13;5031273;28;20103;-81
2023/06/01 04:05:24;;;;;;;10.52;5.25;;;;;;;15.37;50.93;100493.91;5029810;28;20049;-80
2023/06/01 04:07:52;;;;;;;10.98;5.10;;;;;;;15.37;50.93;100489.44;5030825;28;20383;-81
2023/06/01 04:10:19;;;;;;;11.32;5.18;;;;;;;15.37;51.01;100491.25;5031281;28;20463;-81
2023/06/01 04:12:48;;;;;;;10.82;5.15;;;;;;;15.38;51.08;100487.63;5030873;28;20041;-80
2023/06/01 04:15:16;;;;;;;13.15;5.57;;;;;;;15.39;50.88;100489.31;5031055;28;20103;-81
2023/06/01 04:17:43;;;;;;;11.13;5.07;;;;;;;15.40;50.95;100484.88;5030831;28;20068;-81
2023/06/01 04:20:12;;;;;;;7.78;4.63;;;;;;;15.37;51.04;100478.81;5030945;28;20064;-81
2023/06/01 04:22:40;;;;;;;8.75;4.68;;;;;;;15.37;51.24;100483.28;5029902;28;20053;-81
2023/06/01 04:25:16;;;;;;;10.43;5.05;;;;;;;15.36;51.30;100484.22;5030419;28;20592;-81
2023/06/01 04:27:47;;;;;;;13.05;5.32;;;;;;;15.37;51.21;100483.28;5030547;28;20096;-81
2023/06/01 04:30:15;;;;;;;13.23;4.93;;;;;;;15.38;51.04;100466.41;5031016;28;20057;-82
2023/06/01 04:32:44;;;;;;;14.20;4.93;;;;;;;15.39;51.04;100476.06;5029070;28;20081;-80
2023/06/01 04:35:11;;;;;;;15.18;5.28;;;;;;;15.40;50.94;100480.41;5030519;28;20077;-81
2023/06/01 04:37:39;;;;;;;21.02;5.53;;;;;;;15.41;51.21;100476.84;5030666;28;20056;-80
2023/06/01 04:40:08;;;;;;;10.88;5.40;;;;;;;15.43;51.16;100480.22;5030786;28;20053;-81
2023/06/01 04:42:36;;;;;;;17.10;5.07;;;;;;;15.46;51.32;100479.16;5030735;28;20045;-81
2023/06/01 04:45:04;;;;;;;12.50;4.93;;;;;;;15.48;51.37;100474.63;5030314;28;20080;-81
2023/06/01 04:47:31;;;;;;;21.45;5.28;;;;;;;15.50;51.19;100483.31;5030809;28;20060;-80
2023/06/01 04:49:58;;;;;;;12.68;4.68;;;;;;;15.53;51.13;100482.25;5030754;28;20114;-80
2023/06/01 04:52:25;;;;;;;14.02;5.38;;;;;;;15.53;51.10;100482.25;5030730;28;20107;-80
2023/06/01 04:54:51;;;;;;;12.80;5.28;;;;;;;15.54;50.99;100484.81;5030299;28;20402;-80
2023/06/01 04:57:18;;;;;;;11.45;5.15;;;;;;;15.55;50.93;100485.69;5030329;28;20049;-81
2023/06/01 04:59:45;;;;;;;14.70;5.20;;;;;;;15.54;50.95;100481.28;5030403;28;20055;-80
2023/06/01 05:02:12;;;;;;;15.32;5.97;;;;;;;15.54;51.33;100483.94;5030502;28;20049;-81
2023/06/01 05:04:38;;;;;;;10.52;4.90;;;;;;;15.53;51.12;100483.13;5030335;28;20120;-80
2023/06/01 05:07:05;;;;;;;12.25;5.60;;;;;;;15.53;51.22;100485.78;5030477;28;20064;-81
2023/06/01 05:09:32;;;;;;;14.73;5.00;;;;;;;15.54;51.25;100494.56;5030275;28;20049;-80
2023/06/01 05:11:59;;;;;;;13.57;4.95;;;;;;;15.52;51.20;100485.88;5030182;28;20152;-81
2023/06/01 05:14:25;;;;;;;14.05;5.57;;;;;;;15.50;51.16;100489.47;5030155;28;20045;-81
2023/06/01 05:16:52;;;;;;;10.10;5.22;;;;;;;15.50;51.26;100485.97;5030007;28;20077;-81
2023/06/01 05:19:18;;;;;;;10.35;5.13;;;;;;;15.47;51.42;100496.78;5030460;28;20585;-81
2023/06/01 05:21:45;;;;;;;11.07;5.07;;;;;;;15.45;51.37;100491.59;5030344;28;20107;-80
2023/06/01 05:24:11;;;;;;;11.52;5.10;;;;;;;15.44;51.25;100492.53;5030236;28;20064;-81
2023/06/01 05:26:38;;;;;;;8.75;4.88;;;;;;;15.42;51.29;100496.22;5029594;28;20132;-80
2023/06/01 05:29:05;;;;;;;13.32;5.20;;;;;;;15.37;51.38;100494.72;5030079;28;20061;-81
2023/06/01 05:31:31;;;;;;;11.10;4.72;;;;;;;15.35;51.42;100487.81;5029991;28;20774;-80
2023/06/01 05:33:58;;;;;;;12.98;5.40;;;;;;;15.34;51.79;100494.94;5030213;28;20053;-80
2023/06/01 05:36:24;;;;;;;10.90;5.00;;;;;;;15.35;51.79;100496.66;5029856;28;20132;-80
2023/06/01 05:38:51;;;;;;;12.07;5.05;;;;;;;15.36;51.97;100490.38;5030185;28;20054;-81
2023/06/01 05:41:18;;;;;;;11.88;5.38;;;;;;;15.39;51.96;100489.31;5029968;28;20045;-80
2023/06/01 05:43:44;;;;;;;13.35;5.43;;;;;;;15.39;51.81;100497.28;5028588;28;20061;-80
2023/06/01 05:46:11;;;;;;;11.45;5.18;;;;;;;15.42;51.88;100490.94;5033370;28;20037;-79
2023/06/01 05:48:38;;;;;;;12.70;5.15;;;;;;;15.41;51.76;100495.41;5031817;28;20055;-80
2023/06/01 05:51:06;;;;;;;15.68;6.15;;;;;;;15.43;51.86;100489.97;5032063;28;20060;-80
2023/06/01 05:53:33;;;;;;;18.75;5.65;;;;;;;15.43;51.82;100496.13;5033899;28;20057;-80
2023/06/01 05:55:59;;;;;;;14.98;5.25;;;;;;;15.45;52.14;100498.69;5033111;28;20049;-79
2023/06/01 05:58:26;;;;;;;11.27;5.70;;;;;;;15.47;52.10;100499.44;5033726;28;20046;-79
2023/06/01 06:00:53;;;;;;;10.32;4.95;;;;;;;15.50;52.46;100500.09;5032046;28;20053;-80
2023/06/01 06:03:19;;;;;;;14.48;6.25;;;;;;;15.54;52.28;100491.91;5032461;28;20053;-80
2023/06/01 06:05:46;;;;;;;13.70;5.63;;;;;;;15.56;52.07;100490.03;5032919;28;20050;-81
2023/06/01 06:08:13;;;;;;;12.35;4.95;;;;;;;15.60;52.18;100494.19;5033090;28;20556;-80
2023/06/01 06:10:39;;;;;;;12.68;5.80;;;;;;;15.61;52.27;100496.72;5033147;28;20045;-83
2023/06/01 06:13:06;;;;;;;11.40;4.60;;;;;;;15.64;52.04;100495.69;5033179;28;20461;-81
2023/06/01 06:15:32;;;;;;;8.90;5.35;;;;;;;15.64;51.90;100495.69;5033738;28;20115;-79
2023/06/01 06:17:59;;;;;;;10.02;5.30;;;;;;;15.66;52.02;100493.75;5032972;28;20080;-80
2023/06/01 06:20:25;;;;;;;13.55;5.47;;;;;;;15.67;52.19;100494.63;5032033;28;20045;-81
2023/06/01 06:22:52;;;;;;;14.68;4.85;;;;;;;15.69;52.33;100498.00;5033045;28;20471;-80
2023/06/01 06:25:19;;;;;;;9.57;4.93;;;;;;;15.71;52.28;100498.75;5032885;28;20068;-80
2023/06/01 06:27:46;;;;;;;10.10;5.65;;;;;;;15.74;52.28;100493.25;5031841;28;20049;-80
2023/06/01 06:30:13;;;;;;;9.63;4.95;;;;;;;15.76;52.69;100504.63;5032996;28;20064;-80
2023/06/01 06:32:39;;;;;;;9.27;5.10;;;;;;;15.79;52.34;100503.56;5033001;28;20058;-79
2023/06/01 06:35:06;;;;;;;8.73;4.97;;;;;;;15.81;52.55;100497.19;5032596;28;20107;-80
2023/06/01 06:37:33;;;;;;;8.48;4.68;;;;;;;15.84;52.49;100504.94;5032074;28;20874;-80
2023/06/01 06:40:00;;;;;;;18.45;5.53;;;;;;;15.86;52.51;100503.03;5032740;28;20045;-80
2023/06/01 06:42:27;;;;;;;11.02;5.25;;;;;;;15.90;52.63;100498.38;5032349;28;20505;-80
2023/06/01 06:44:54;;;;;;;10.70;5.22;;;;;;;15.95;52.35;100509.56;5031144;28;20511;-80
2023/06/01 06:47:20;;;;;;;13.23;5.30;;;;;;;15.97;52.44;100501.50;5032613;28;20506;-79
2023/06/01 06:49:47;;;;;;;9.93;5.85;;;;;;;16.01;52.28;100503.00;5032001;28;20046;-80
2023/06/01 06:52:13;;;;;;;12.55;4.82;;;;;;;16.02;52.13;100500.25;5032369;28;20061;-81
2023/06/01 06:54:40;;;;;;;12.70;5.00;;;;;;;16.04;52.44;100501.94;5032428;28;20049;-78
2023/06/01 06:57:07;;;;;;;9.00;4.53;;;;;;;16.04;52.28;100496.63;5032154;28;20111;-81
2023/06/01 06:59:35;;;;;;;12.85;5.20;;;;;;;16.06;52.33;100497.34;5032440;28;20057;-80
2023/06/01 07:02:03;;;;;;;12.00;5.03;;;;;;;16.05;52.21;100500.97;5032218;28;20057;-80
2023/06/01 07:04:30;;;;;;;6.53;4.43;;;;;;;16.05;52.26;100498.31;5032304;28;20049;-80
2023/06/01 07:06:56;;;;;;;8.05;4.63;;;;;;;16.05;52.36;100500.97;5031941;28;20055;-80
2023/06/01 07:09:23;;;;;;;10.75;4.53;;;;;;;16.05;52.61;100498.31;5037305;28;20098;-80
2023/06/01 07:11:50;;;;;;;8.18;3.75;;;;;;;16.07;52.62;100507.03;5034431;28;20434;-80
2023/06/01 07:14:16;;;;;;;9.25;4.18;;;;;;;16.07;52.48;100507.88;5032023;28;20049;-80
2023/06/01 07:16:43;;;;;;;9.30;3.58;;;;;;;16.10;52.47;100502.38;5031697;28;20054;-81
2023/06/01 07:19:10;;;;;;;7.80;3.25;;;;;;;16.13;52.80;100515.44;5030929;28;20063;-79
2023/06/01 07:21:36;;;;;;;19.88;3.60;;;;;;;16.16;52.58;100498.44;5031700;28;20050;-79
2023/06/01 07:24:03;;;;;;;7.45;3.30;;;;;;;16.20;52.38;100501.72;5032039;28;20061;-79
2023/06/01 07:26:30;;;;;;;9.93;3.13;;;;;;;16.20;52.50;100497.28;5032027;28;20152;-79
2023/06/01 07:28:59;;;;;;;4.50;2.95;;;;;;;16.23;52.52;100504.19;5031561;28;20409;-80
2023/06/01 07:31:27;;;;;;;5.15;2.90;;;;;;;16.26;52.61;100499.50;5031497;28;20041;-79
2023/06/01 07:33:55;;;;;;;8.77;3.83;;;;;;;16.28;52.45;100500.25;5031655;28;20136;-80
2023/06/01 07:36:23;;;;;;;5.68;2.83;;;;;;;16.32;52.51;100500.88;5031726;28;20567;-79
2023/06/01 07:38:50;;;;;;;6.05;3.25;;;;;;;16.33;52.51;100496.44;5031707;28;20080;-80
2023/06/01 07:41:17;;;;;;;6.50;3.20;;;;;;;16.34;52.60;100508.75;5030584;28;20054;-79
2023/06/01 07:43:44;;;;;;;5.25;3.10;;;;;;;16.35;52.65;100499.81;5031394;28;20077;-80
2023/06/01 07:46:10;;;;;;;6.10;3.03;;;;;;;16.35;52.58;100511.31;5031466;28;20081;-79
2023/06/01 07:48:38;;;;;;;7.22;3.22;;;;;;;16.35;52.47;100519.28;5031438;28;20061;-79
2023/06/01 07:51:06;;;;;;;7.50;3.67;;;;;;;16.33;52.50;100512.38;5031813;28;20329;-80
2023/06/01 07:53:33;;;;;;;8.05;3.10;;;;;;;16.31;52.46;100509.81;5031436;28;20084;-80
2023/06/01 07:56:00;;;;;;;7.10;3.58;;;;;;;16.31;52.72;100506.28;5031342;28;20096;-79
2023/06/01 07:58:27;;;;;;;4.68;3.15;;;;;;;16.31;52.74;100500.97;5031361;28;20053;-79
2023/06/01 08:00:54;;;;;;;6.47;3.65;;;;;;;16.34;52.73;100506.09;5031298;28;20132;-79
2023/06/01 08:03:21;;;;;;;6.57;3.22;;;;;;;16.36;52.58;100513.00;5029970;28;20046;-79
2023/06/01 08:05:48;;;;;;;9.52;3.95;;;;;;;16.39;52.73;100503.97;5031194;28;20085;-79
2023/06/01 08:08:15;;;;;;;9.57;3.92;;;;;;;16.41;52.73;100504.72;5030495;28;20062;-79
2023/06/01 08:10:42;;;;;;;5.75;3.63;;;;;;;16.40;52.57;100505.66;5031266;28;20049;-80
2023/06/01 08:13:08;;;;;;;5.85;3.83;;;;;;;16.40;52.61;100503.00;5030970;28;20502;-79
2023/06/01 08:15:37;;;;;;;5.53;3.65;;;;;;;16.40;52.70;100505.66;5029343;28;20136;-80
2023/06/01 08:18:06;;;;;;;6.90;3.83;;;;;;;16.38;52.61;100507.56;5030740;28;20053;-79
2023/06/01 08:20:33;;;;;;;6.63;3.22;;;;;;;16.39;52.95;100496.00;5029137;28;20064;-80
2023/06/01 08:23:00;;;;;;;6.05;3.15;;;;;;;16.41;52.99;100499.41;5030896;28;20458;-81
2023/06/01 08:25:27;;;;;;;11.48;4.13;;;;;;;16.44;52.81;100503.66;5031441;28;20072;-79
2023/06/01 08:27:54;;;;;;;6.97;3.63;;;;;;;16.44;52.74;100501.81;5030580;28;20533;-79
2023/06/01 08:30:20;;;;;;;8.57;3.67;;;;;;;16.45;52.94;100492.06;5031115;28;20064;-79
2023/06/01 08:32:49;;;;;;;7.50;3.85;;;;;;;16.47;53.25;100496.31;5029641;28;20053;-80
2023/06/01 08:35:16;;;;;;;8.00;4.15;;;;;;;16.50;53.26;100490.78;5030678;28;20049;-79
2023/06/01 08:37:42;;;;;;;4.80;3.65;;;;;;;16.53;53.11;100487.88;5030585;28;20049;-79
2023/06/01 08:40:10;;;;;;;5.40;3.78;;;;;;;16.56;53.00;100488.66;5029643;28;20091;-80
2023/06/01 08:42:54;;;;;;;7.13;4.07;;;;;;;16.53;53.74;100487.06;5029548;28;20053;-79
2023/06/01 08:45:21;;;;;;;7.72;3.65;;;;;;;16.58;53.35;100487.56;5030462;28;20454;-80
2023/06/01 08:47:49;;;;;;;8.05;4.18;;;;;;;16.60;53.53;100490.97;5029162;28;20061;-79
2023/06/01 08:50:16;;;;;;;9.18;3.95;;;;;;;16.64;53.06;100480.97;5029368;28;20049;-80
2023/06/01 08:52:45;;;;;;;7.18;4.15;;;;;;;16.66;53.30;100484.38;5030462;28;20049;-80
2023/06/01 08:55:13;;;;;;;9.55;4.18;;;;;;;16.68;53.05;100487.78;5030277;28;20153;-80
2023/06/01 08:57:41;;;;;;;7.95;4.00;;;;;;;16.70;53.07;100488.50;5030515;28;20128;-80
2023/06/01 09:00:11;;;;;;;8.90;4.60;;;;;;;16.71;52.89;100492.84;5030684;28;20056;-79
2023/06/01 09:02:42;;;;;;;8.75;4.00;;;;;;;16.73;52.84;100496.28;5029388;28;20057;-80
2023/06/01 09:05:11;;;;;;;6.97;3.83;;;;;;;16.72;52.62;100491.91;5030389;28;20506;-80
2023/06/01 09:07:38;;;;;;;7.30;4.63;;;;;;;16.72;53.02;100485.75;5029102;28;20096;-79
2023/06/01 09:10:06;;;;;;;5.85;4.13;;;;;;;16.72;53.00;100491.06;5083810;22;20414;-78
2023/06/01 09:12:33;;;;;;;7.20;4.35;;;;;;;16.73;53.16;100493.59;5030003;28;20045;-77
2023/06/01 09:15:17;;;;;;;11.05;4.32;;;;;;;16.70;53.72;100488.50;5030487;28;20445;-77
2023/06/01 09:17:46;;;;;;;6.40;3.58;;;;;;;16.77;53.40;100486.25;5030182;28;20052;-77
2023/06/01 09:20:27;;;;;;;5.10;3.75;;;;;;;16.80;53.24;100489.56;5034021;28;20474;-77
2023/06/01 09:22:55;;;;;;;6.45;4.00;;;;;;;16.86;53.23;100479.44;5034474;28;20076;-77
2023/06/01 09:25:30;;;;;;;6.47;3.80;;;;;;;16.88;53.63;100482.81;5034151;28;20054;-78
2023/06/01 09:27:59;;;;;;;7.72;4.10;;;;;;;16.93;53.50;100483.34;5034220;28;20104;-77
2023/06/01 09:30:38;;;;;;;6.40;3.47;;;;;;;16.92;53.89;100473.66;5032948;28;20049;-78
2023/06/01 09:33:16;;;;;;;8.02;4.05;;;;;;;16.98;53.90;100470.56;5034304;28;20050;-77
2023/06/01 09:35:45;;;;;;;5.68;4.07;;;;;;;17.06;53.32;100472.69;5033830;28;20498;-77
2023/06/01 09:38:21;;;;;;;6.50;3.33;;;;;;;17.12;53.87;100476.72;5034021;28;20064;-77
2023/06/01 09:41:02;;;;;;;5.88;4.10;;;;;;;17.15;54.13;100472.03;5034036;28;20056;-79
2023/06/01 09:43:30;;;;;;;6.47;3.70;;;;;;;17.22;53.40;100472.41;5032950;28;20140;-77
2023/06/01 09:46:08;;;;;;;4.65;3.72;;;;;;;17.21;53.38;100462.75;5033861;28;20700;-78
2023/06/01 09:48:35;;;;;;;6.35;3.92;;;;;;;17.25;52.90;100466.88;5033753;28;20494;-77
2023/06/01 09:51:02;;;;;;;3.90;2.83;;;;;;;17.27;53.12;100464.94;5033759;28;20100;-78
2023/06/01 09:53:40;;;;;;;4.28;3.10;;;;;;;17.27;53.34;100461.44;5033632;28;20053;-77
2023/06/01 09:56:06;;;;;;;3.10;2.33;;;;;;;17.34;53.34;100456.53;5033427;28;20050;-77
2023/06/01 09:58:38;;;;;;;2.58;2.25;;;;;;;17.38;53.34;100456.16;5033462;28;20548;-77
2023/06/01 10:01:10;;;;;;;4.97;2.70;;;;;;;17.45;52.79;100456.53;5033771;28;20394;-77
2023/06/01 10:03:41;;;;;;;3.03;2.45;;;;;;;17.49;53.12;100455.34;5033658;28;20284;-77
2023/06/01 10:06:12;;;;;;;2.83;2.25;;;;;;;17.53;52.85;100448.84;5033379;28;20049;-77
2023/06/01 10:08:40;;;;;;;2.60;2.40;;;;;;;17.60;52.83;100448.38;5033336;28;20107;-77
2023/06/01 10:11:07;;;;;;;2.78;2.50;;;;;;;17.65;52.95;100451.53;5032078;28;20125;-77
2023/06/01 10:13:35;;;;;;;5.50;3.17;;;;;;;17.72;52.83;100463.44;5033384;28;20054;-77
2023/06/01 10:16:03;;;;;;;6.38;3.90;;;;;;;17.77;52.50;100455.94;5033105;28;20674;-78
2023/06/01 10:18:31;;;;;;;5.25;3.63;;;;;;;17.80;52.14;100450.34;5033203;28;20056;-78
2023/06/01 10:20:58;;;;;;;9.75;3.47;;;;;;;17.83;52.23;100458.13;5033168;28;20045;-77
2023/06/01 10:23:26;;;;;;;6.97;4.15;;;;;;;17.83;52.34;100457.28;5033144;28;20049;-77
2023/06/01 10:26:04;;;;;;;7.03;4.55;;;;;;;17.82;52.46;100459.09;5032871;28;20418;-76
2023/06/01 10:28:35;;;;;;;5.25;4.15;;;;;;;17.82;52.19;100452.91;5031919;28;20091;-77
2023/06/01 10:31:33;;;;;;;4.93;3.97;;;;;;;17.78;52.23;100454.97;5032590;28;20053;-76
2023/06/01 10:34:00;;;;;;;5.57;4.20;;;;;;;17.84;52.31;100449.16;5033234;28;20060;-77
2023/06/01 10:36:51;;;;;;;8.32;4.50;;;;;;;17.81;52.45;100446.75;5032867;28;20091;-77
2023/06/01 10:39:24;;;;;;;6.70;4.20;;;;;;;17.88;52.46;100446.25;5032996;28;20045;-78
2023/06/01 10:41:51;;;;;;;;;;;;;;;17.90;52.13;100439.84;5032201;28;20066;-78
2023/06/01 10:44:54;;;;;;;5.32;4.10;;;;;;;17.95;52.66;100444.84;5032995;28;19921;-77
2023/06/01 10:47:20;;;;;;;4.88;3.88;;;;;;;18.02;52.18;100432.72;5010017;28;20050;-77
2023/06/01 10:49:47;;;;;;;9.63;4.55;;;;;;;18.04;52.38;100429.94;5028205;28;20135;-78
2023/06/01 10:52:34;;;;;;;4.93;3.83;;;;;;;18.03;52.73;100438.91;5032546;28;20148;-78
2023/06/01 10:55:19;;;;;;;5.63;4.00;;;;;;;18.05;52.57;100437.81;5032585;28;20088;-78
2023/06/01 10:57:47;;;;;;;5.25;4.05;;;;;;;18.14;52.09;100440.75;5031449;28;20053;-77
2023/06/01 11:00:26;;;;;;;7.03;3.95;;;;;;;18.11;52.28;100447.19;5032682;28;20053;-78
2023/06/01 11:02:53;;;;;;;4.07;2.90;;;;;;;18.17;52.35;100436.03;5031320;28;20061;-77
2023/06/01 11:05:38;;;;;;;5.18;3.33;;;;;;;18.15;52.32;100437.13;5032492;28;20076;-77
2023/06/01 11:08:07;;;;;;;7.40;3.53;;;;;;;18.21;51.83;100434.81;5032301;28;20152;-77
2023/06/01 11:13:35;;;;;;;4.10;2.95;;;;;;;18.20;51.90;100433.13;5032353;28;20482;-77
2023/06/01 11:16:14;;;;;;;4.15;3.33;;;;;;;18.21;52.17;100437.50;5031011;28;20053;-78
2023/06/01 11:18:43;;;;;;;2.92;2.58;;;;;;;18.25;51.83;100431.94;5032043;28;20579;-77
2023/06/01 11:21:16;;;;;;;2.83;2.28;;;;;;;18.22;51.75;100439.22;5032085;28;20050;-78
2023/06/01 11:23:45;;;;;;;3.35;2.50;;;;;;;18.22;51.40;100433.03;5032110;28;20529;-77
2023/06/01 11:26:15;;;;;;;3.58;2.38;;;;;;;18.22;51.90;100425.03;5032109;28;20099;-76
2023/06/01 11:28:43;;;;;;;2.63;2.10;;;;;;;18.22;51.52;100427.69;5031926;28;20049;-77
2023/06/01 11:31:12;;;;;;;2.33;2.03;;;;;;;18.22;51.64;100425.88;5032298;28;20441;-77
2023/06/01 11:33:40;;;;;;;4.30;2.72;;;;;;;18.24;51.64;100420.41;5031731;28;20096;-77